Time;durP1;ratioP1;P1;durP2;ratioP2;P2;SDS_P1;SDS_P2;PMS_P1;PMS_P2;Temp;Humidity;BMP_temperature;BMP_pressure;BME280_temperature;BME280_humidity;BME280_pressure;Samples;Min_cycle;Max_cycle;Signal;HPM_P1;HPM_P2
2023/07/12 00:00:45;;;;;;;22.33;11.02;;;19.20;86.60;;;;;;5013727;28;20419;-91
2023/07/12 00:03:11;;;;;;;19.20;9.93;;;19.30;86.80;;;;;;5016934;28;20201;-91
2023/07/12 00:05:37;;;;;;;12.98;8.13;;;19.40;87.30;;;;;;5013172;28;20173;-87
2023/07/12 00:08:04;;;;;;;15.23;7.38;;;19.10;88.10;;;;;;5013963;28;20184;-88
2023/07/12 00:10:34;;;;;;;12.27;7.75;;;19.10;88.40;;;;;;5012779;28;20204;-87
2023/07/12 00:12:59;;;;;;;15.50;8.75;;;19.20;88.80;;;;;;5014140;28;20201;-87
2023/07/12 00:15:28;;;;;;;12.40;7.38;;;19.20;88.80;;;;;;5014164;28;20644;-87
2023/07/12 00:17:55;;;;;;;9.85;7.28;;;19.20;88.80;;;;;;5012872;28;20288;-87
2023/07/12 00:20:33;;;;;;;9.02;7.05;;;19.20;88.90;;;;;;5014027;28;20201;-87
2023/07/12 00:23:00;;;;;;;11.02;6.82;;;19.20;88.90;;;;;;5012802;28;20185;-87
2023/07/12 00:25:28;;;;;;;14.02;7.22;;;19.20;89.10;;;;;;5012769;28;20562;-87
2023/07/12 00:27:54;;;;;;;12.82;8.18;;;19.20;89.00;;;;;;5014033;28;20177;-87
2023/07/12 00:30:21;;;;;;;11.15;7.65;;;19.10;89.00;;;;;;5012699;28;20259;-87
2023/07/12 00:32:48;;;;;;;17.05;7.70;;;19.10;89.20;;;;;;5013214;28;20169;-87
2023/07/12 00:35:17;;;;;;;14.05;7.20;;;19.10;89.20;;;;;;5012520;28;20180;-86
2023/07/12 00:37:43;;;;;;;13.73;7.47;;;19.10;89.30;;;;;;5012632;28;20237;-87
2023/07/12 00:40:19;;;;;;;14.48;6.40;;;19.10;89.40;;;;;;5012492;28;20181;-87
2023/07/12 00:42:46;;;;;;;11.05;7.47;;;19.10;89.50;;;;;;5012428;28;20165;-88
2023/07/12 00:45:12;;;;;;;18.10;8.35;;;19.10;89.40;;;;;;5013675;28;20555;-88
2023/07/12 00:47:39;;;;;;;15.30;9.15;;;19.20;89.40;;;;;;5012486;28;20188;-87
2023/07/12 00:50:17;;;;;;;13.20;8.50;;;19.10;89.50;;;;;;5012267;28;20834;-87
2023/07/12 00:52:43;;;;;;;11.65;8.45;;;19.10;89.50;;;;;;5013809;28;20157;-87
2023/07/12 00:55:53;;;;;;;14.05;8.30;;;19.10;89.50;;;;;;5013347;28;20189;-86
2023/07/12 00:58:19;;;;;;;14.00;8.70;;;19.00;89.50;;;;;;4998340;28;20532;-86
2023/07/12 01:00:46;;;;;;;13.38;7.97;;;19.00;89.80;;;;;;5013350;28;20179;-86
2023/07/12 01:03:13;;;;;;;16.23;9.05;;;18.90;89.80;;;;;;5012087;28;20193;-85
2023/07/12 01:05:39;;;;;;;20.50;8.52;;;18.90;90.00;;;;;;5013342;28;20174;-86
2023/07/12 01:08:06;;;;;;;18.38;8.73;;;18.90;90.20;;;;;;5013570;28;20174;-86
2023/07/12 01:10:31;;;;;;;16.30;8.27;;;18.90;90.20;;;;;;5012023;28;20208;-85
2023/07/12 01:12:57;;;;;;;9.60;7.95;;;18.80;90.30;;;;;;5011994;28;20181;-86
2023/07/12 01:15:23;;;;;;;10.75;8.00;;;18.80;90.50;;;;;;5012040;28;20542;-85
2023/07/12 01:17:49;;;;;;;11.93;7.70;;;18.80;90.50;;;;;;5012079;28;20219;-86
2023/07/12 01:20:14;;;;;;;9.98;6.97;;;18.70;90.50;;;;;;5011986;28;20185;-85
2023/07/12 01:22:40;;;;;;;14.52;6.82;;;18.70;90.60;;;;;;5011879;28;20651;-88
2023/07/12 01:25:05;;;;;;;9.52;6.60;;;18.60;90.70;;;;;;5013437;28;20173;-86
2023/07/12 01:27:31;;;;;;;7.63;5.80;;;18.70;90.80;;;;;;5012134;28;20173;-85
2023/07/12 01:29:57;;;;;;;11.20;5.50;;;18.60;90.90;;;;;;5011826;28;20208;-86
2023/07/12 01:32:24;;;;;;;7.43;5.80;;;18.60;90.90;;;;;;5011973;28;20252;-85
2023/07/12 01:34:49;;;;;;;13.27;6.95;;;18.40;91.20;;;;;;5011919;28;20568;-85
2023/07/12 01:37:15;;;;;;;16.25;7.55;;;18.30;91.90;;;;;;5013151;28;20178;-87
2023/07/12 01:39:41;;;;;;;18.00;6.57;;;18.30;92.80;;;;;;5011948;28;20268;-88
2023/07/12 01:42:06;;;;;;;20.25;8.60;;;18.30;93.50;;;;;;5013126;28;20702;-90
2023/07/12 01:44:32;;;;;;;14.88;8.38;;;18.30;93.60;;;;;;5012725;28;20193;-90
2023/07/12 01:46:57;;;;;;;19.00;8.30;;;18.40;93.50;;;;;;5016148;28;20181;-89
2023/07/12 01:49:23;;;;;;;14.98;8.18;;;18.30;93.60;;;;;;5016558;28;20272;-89
2023/07/12 01:51:49;;;;;;;13.02;6.60;;;18.30;93.70;;;;;;5015719;28;20288;-90
2023/07/12 01:54:14;;;;;;;11.80;6.97;;;18.30;93.60;;;;;;5015528;28;20208;-88
2023/07/12 01:56:40;;;;;;;11.00;6.63;;;18.30;93.60;;;;;;5015687;28;20165;-89
2023/07/12 01:59:05;;;;;;;13.77;6.75;;;18.30;93.60;;;;;;5015620;28;20611;-88
2023/07/12 02:01:31;;;;;;;8.20;6.90;;;18.20;93.60;;;;;;5015412;28;20204;-87
2023/07/12 02:03:57;;;;;;;9.32;6.97;;;18.20;93.70;;;;;;5015350;28;20219;-87
2023/07/12 02:06:22;;;;;;;11.43;7.78;;;18.20;93.70;;;;;;5016772;28;20548;-87
2023/07/12 02:08:48;;;;;;;7.75;6.97;;;18.20;93.70;;;;;;5015188;28;20173;-87
2023/07/12 02:11:14;;;;;;;9.07;6.47;;;18.10;93.70;;;;;;5015140;28;20205;-87
2023/07/12 02:13:40;;;;;;;13.30;6.57;;;18.20;93.70;;;;;;5015118;28;20193;-87
2023/07/12 02:16:06;;;;;;;9.93;5.70;;;18.20;93.70;;;;;;5015197;28;20173;-87
2023/07/12 02:18:31;;;;;;;8.40;6.38;;;18.20;93.60;;;;;;5016319;28;20648;-87
2023/07/12 02:20:57;;;;;;;9.35;7.18;;;18.20;93.60;;;;;;5015220;28;20240;-87
2023/07/12 02:23:22;;;;;;;7.45;6.25;;;18.20;93.60;;;;;;5014932;28;20197;-87
2023/07/12 02:25:48;;;;;;;8.63;6.50;;;18.20;93.60;;;;;;5014977;28;20181;-87
2023/07/12 02:28:14;;;;;;;9.15;6.95;;;18.20;93.70;;;;;;5014913;28;20656;-87
2023/07/12 02:30:42;;;;;;;7.80;6.80;;;18.20;93.70;;;;;;5014811;28;20204;-87
2023/07/12 02:33:08;;;;;;;7.50;6.65;;;18.20;93.70;;;;;;5014776;28;20189;-87
2023/07/12 02:35:33;;;;;;;8.00;6.90;;;18.00;93.50;;;;;;5014854;28;20177;-87
2023/07/12 02:38:00;;;;;;;11.93;7.97;;;18.10;93.80;;;;;;5014870;28;20621;-88
2023/07/12 02:40:27;;;;;;;8.77;7.10;;;18.20;93.80;;;;;;5015433;28;20185;-88
2023/07/12 02:42:53;;;;;;;10.63;7.60;;;18.20;93.80;;;;;;5014616;28;20177;-87
2023/07/12 02:45:19;;;;;;;10.05;6.75;;;18.20;93.80;;;;;;5014750;28;20181;-87
2023/07/12 02:47:45;;;;;;;8.15;7.15;;;18.20;93.70;;;;;;5014625;28;20601;-87
2023/07/12 02:50:10;;;;;;;8.02;7.22;;;18.20;93.70;;;;;;5014287;28;20205;-87
2023/07/12 02:52:36;;;;;;;14.00;7.78;;;18.20;93.60;;;;;;5014620;28;20652;-87
2023/07/12 02:55:01;;;;;;;8.85;7.45;;;18.20;93.60;;;;;;5014984;28;20213;-87
2023/07/12 02:57:27;;;;;;;11.25;8.02;;;18.20;93.50;;;;;;5014287;28;20268;-87
2023/07/12 02:59:53;;;;;;;9.43;7.60;;;18.10;93.50;;;;;;5014242;28;20668;-87
2023/07/12 03:02:19;;;;;;;8.25;7.45;;;18.20;93.60;;;;;;5014286;28;20177;-87
2023/07/12 03:04:45;;;;;;;10.80;7.88;;;18.20;93.50;;;;;;5015427;28;20189;-87
2023/07/12 03:07:10;;;;;;;11.82;8.70;;;18.10;93.40;;;;;;5014183;28;20703;-87
2023/07/12 03:09:36;;;;;;;8.77;7.88;;;18.00;93.40;;;;;;5014034;28;20181;-87
2023/07/12 03:12:02;;;;;;;8.35;7.47;;;18.00;93.50;;;;;;5014056;28;20671;-86
2023/07/12 03:14:28;;;;;;;9.43;8.15;;;18.00;93.60;;;;;;5015147;28;20186;-87
2023/07/12 03:16:54;;;;;;;10.07;7.85;;;18.00;93.60;;;;;;5015398;28;20185;-86
2023/07/12 03:19:21;;;;;;;8.20;7.43;;;18.00;93.70;;;;;;5013897;28;20173;-86
2023/07/12 03:21:47;;;;;;;8.57;7.70;;;18.00;93.70;;;;;;5014435;28;20180;-86
2023/07/12 03:24:12;;;;;;;7.70;7.00;;;18.00;93.80;;;;;;5013786;28;20197;-86
2023/07/12 03:26:38;;;;;;;10.75;7.40;;;18.10;93.80;;;;;;5013841;28;20549;-86
2023/07/12 03:29:04;;;;;;;8.13;7.43;;;18.00;93.70;;;;;;5014949;28;20224;-86
2023/07/12 03:31:30;;;;;;;7.75;6.88;;;18.00;93.70;;;;;;5014973;28;20225;-86
2023/07/12 03:33:57;;;;;;;7.50;6.63;;;18.00;93.80;;;;;;5013586;28;20639;-86
2023/07/12 03:36:26;;;;;;;7.05;6.45;;;18.00;93.90;;;;;;5014857;28;20185;-86
2023/07/12 03:38:52;;;;;;;8.25;7.43;;;18.10;93.90;;;;;;5014678;28;20260;-86
2023/07/12 03:41:20;;;;;;;10.75;7.00;;;18.00;93.90;;;;;;5013930;28;20255;-86
2023/07/12 03:43:46;;;;;;;8.27;7.47;;;18.10;93.90;;;;;;5013336;28;20294;-86
2023/07/12 03:46:11;;;;;;;7.80;6.68;;;18.20;93.90;;;;;;5014648;28;20256;-86
2023/07/12 03:48:37;;;;;;;11.73;6.88;;;18.20;93.90;;;;;;5014538;28;20273;-86
2023/07/12 03:51:03;;;;;;;6.75;6.10;;;18.30;93.90;;;;;;5013941;28;20237;-87
2023/07/12 03:53:28;;;;;;;6.78;6.13;;;18.20;93.80;;;;;;5016841;28;20243;-87
2023/07/12 03:55:57;;;;;;;8.20;6.90;;;18.10;93.70;;;;;;5013271;28;20176;-87
2023/07/12 03:58:25;;;;;;;7.18;6.47;;;17.90;93.80;;;;;;5013187;28;20173;-87
2023/07/12 04:00:51;;;;;;;7.07;6.38;;;18.10;93.90;;;;;;5014458;28;20173;-87
2023/07/12 04:03:18;;;;;;;8.77;7.40;;;18.10;93.90;;;;;;5014491;28;20228;-87
2023/07/12 04:05:48;;;;;;;7.70;6.90;;;18.00;93.80;;;;;;5014275;28;20204;-87
2023/07/12 04:08:13;;;;;;;8.27;7.43;;;18.00;93.80;;;;;;5012234;28;20200;-87
2023/07/12 04:10:39;;;;;;;9.80;7.05;;;17.90;93.90;;;;;;5012958;28;20676;-88
2023/07/12 04:13:05;;;;;;;10.80;6.65;;;17.80;94.00;;;;;;5012928;28;20205;-87
2023/07/12 04:15:30;;;;;;;7.50;6.45;;;17.70;94.10;;;;;;5012834;28;20224;-87
2023/07/12 04:17:56;;;;;;;8.13;6.15;;;17.80;94.20;;;;;;5014078;28;20177;-87
2023/07/12 04:20:22;;;;;;;9.48;6.47;;;17.80;94.20;;;;;;5012751;28;20260;-87
2023/07/12 04:22:51;;;;;;;14.55;6.63;;;17.80;94.20;;;;;;5012754;28;20196;-87
2023/07/12 04:25:18;;;;;;;12.13;6.07;;;17.70;94.40;;;;;;5012997;28;20201;-87
2023/07/12 04:27:44;;;;;;;12.93;6.20;;;17.70;94.60;;;;;;5013901;28;20177;-86
2023/07/12 04:30:12;;;;;;;8.90;7.28;;;17.80;94.70;;;;;;5014122;28;20564;-86
2023/07/12 04:32:39;;;;;;;13.50;10.70;;;17.80;94.90;;;;;;5013841;28;20570;-86
2023/07/12 04:35:04;;;;;;;14.20;12.65;;;17.90;95.00;;;;;;5013683;28;20193;-87
2023/07/12 04:37:31;;;;;;;17.63;14.95;;;18.00;95.20;;;;;;5012531;28;20169;-86
2023/07/12 04:39:57;;;;;;;20.08;16.35;;;18.00;95.20;;;;;;5013736;28;20169;-86
2023/07/12 04:42:22;;;;;;;19.27;16.75;;;18.00;95.20;;;;;;5012390;28;20196;-87
2023/07/12 04:44:48;;;;;;;20.65;14.90;;;18.00;95.20;;;;;;5013559;28;20243;-87
2023/07/12 04:47:17;;;;;;;16.15;14.32;;;18.00;95.30;;;;;;5012438;28;20592;-87
2023/07/12 04:49:43;;;;;;;15.30;13.43;;;18.00;95.30;;;;;;5013572;28;20170;-87
2023/07/12 04:52:12;;;;;;;22.02;13.55;;;18.00;95.30;;;;;;5012432;28;20227;-87
2023/07/12 04:54:42;;;;;;;13.10;11.63;;;18.00;95.30;;;;;;5013449;28;20645;-86
2023/07/12 04:57:08;;;;;;;12.90;11.55;;;18.00;95.30;;;;;;5012246;28;20669;-86
2023/07/12 04:59:35;;;;;;;11.82;10.68;;;18.00;95.40;;;;;;5012242;28;20711;-87
2023/07/12 05:02:01;;;;;;;11.38;10.02;;;18.00;95.40;;;;;;5013517;28;20192;-87
2023/07/12 05:04:26;;;;;;;11.50;10.50;;;18.10;95.50;;;;;;5012197;28;20201;-87
2023/07/12 05:06:52;;;;;;;12.48;10.18;;;18.20;95.40;;;;;;5012319;28;20173;-87
2023/07/12 05:09:18;;;;;;;11.07;10.02;;;18.20;95.30;;;;;;5012498;28;20185;-88
2023/07/12 05:11:44;;;;;;;12.65;10.27;;;18.10;95.30;;;;;;5012495;28;20204;-88
2023/07/12 05:14:09;;;;;;;11.85;10.25;;;18.20;95.40;;;;;;5012597;28;20189;-88
2023/07/12 05:16:35;;;;;;;12.48;9.57;;;18.20;95.40;;;;;;5014031;28;20176;-88
2023/07/12 05:19:01;;;;;;;10.68;9.65;;;18.10;95.30;;;;;;5013685;28;20181;-87
2023/07/12 05:21:26;;;;;;;11.48;9.75;;;18.10;95.30;;;;;;5016251;28;20188;-87
2023/07/12 05:23:52;;;;;;;10.52;9.55;;;18.10;95.40;;;;;;5016153;28;20707;-87
2023/07/12 05:26:17;;;;;;;10.82;9.73;;;18.10;95.40;;;;;;5016046;28;20185;-87
2023/07/12 05:28:43;;;;;;;9.63;8.60;;;18.10;95.50;;;;;;5016129;28;20189;-87
2023/07/12 05:31:11;;;;;;;9.25;8.30;;;18.10;95.60;;;;;;5015963;28;20200;-87
2023/07/12 05:33:37;;;;;;;9.38;8.52;;;18.10;95.60;;;;;;5017003;28;20194;-87
2023/07/12 05:36:03;;;;;;;12.80;9.63;;;18.20;95.70;;;;;;5016566;28;20180;-87
2023/07/12 05:38:29;;;;;;;10.63;9.70;;;18.20;95.70;;;;;;5016020;28;20177;-87
2023/07/12 05:40:57;;;;;;;10.50;9.50;;;18.20;95.70;;;;;;5017017;28;20196;-87
2023/07/12 05:43:23;;;;;;;11.07;9.50;;;18.20;95.70;;;;;;5015970;28;20201;-86
2023/07/12 05:45:50;;;;;;;10.63;9.63;;;18.20;95.60;;;;;;5015819;28;20660;-86
2023/07/12 05:48:15;;;;;;;12.63;10.35;;;18.20;95.60;;;;;;5016906;28;20182;-87
2023/07/12 05:50:42;;;;;;;10.55;9.40;;;18.30;95.50;;;;;;5016752;28;20208;-87
2023/07/12 05:53:08;;;;;;;10.52;9.70;;;18.20;95.50;;;;;;5017028;28;20639;-87
2023/07/12 05:55:34;;;;;;;10.30;9.30;;;18.30;95.40;;;;;;5015753;28;20174;-87
2023/07/12 05:58:00;;;;;;;11.15;10.15;;;18.20;95.40;;;;;;5015656;28;20176;-87
2023/07/12 06:00:25;;;;;;;11.55;10.05;;;18.30;95.40;;;;;;5015620;28;20791;-87
2023/07/12 06:02:51;;;;;;;11.52;10.43;;;18.20;95.20;;;;;;5015456;28;20181;-87
2023/07/12 06:05:18;;;;;;;12.70;10.75;;;18.20;95.20;;;;;;5016814;28;20182;-87
2023/07/12 06:07:44;;;;;;;11.85;10.65;;;18.20;95.10;;;;;;5015676;28;20180;-87
2023/07/12 06:10:10;;;;;;;16.52;11.68;;;18.20;95.20;;;;;;5015614;28;20691;-87
2023/07/12 06:12:35;;;;;;;11.70;10.50;;;18.20;95.10;;;;;;5015648;28;20202;-87
2023/07/12 06:15:02;;;;;;;14.85;10.85;;;18.20;95.00;;;;;;5017369;28;20190;-87
2023/07/12 06:17:29;;;;;;;16.13;11.10;;;18.20;95.00;;;;;;5015447;28;20200;-88
2023/07/12 06:19:54;;;;;;;11.43;10.15;;;18.20;95.00;;;;;;5015636;28;20185;-88
2023/07/12 06:22:20;;;;;;;14.30;10.70;;;18.30;95.00;;;;;;5015406;28;20177;-88
2023/07/12 06:24:46;;;;;;;14.23;11.63;;;18.30;95.00;;;;;;5015307;28;20546;-88
2023/07/12 06:27:12;;;;;;;12.95;11.32;;;18.30;94.90;;;;;;5015908;28;20177;-88
2023/07/12 06:29:38;;;;;;;15.35;12.30;;;18.30;95.00;;;;;;5016444;28;20173;-88
2023/07/12 06:32:04;;;;;;;13.15;11.85;;;18.40;95.00;;;;;;5014385;28;20205;-88
2023/07/12 06:34:29;;;;;;;13.43;12.07;;;18.50;95.00;;;;;;5015457;28;20215;-87
2023/07/12 06:36:55;;;;;;;12.93;11.60;;;18.50;95.00;;;;;;5016445;28;20173;-88
2023/07/12 06:39:20;;;;;;;13.02;11.65;;;18.60;95.10;;;;;;5015107;28;20181;-88
2023/07/12 06:41:46;;;;;;;14.13;12.32;;;18.70;95.10;;;;;;5014995;28;20181;-85
2023/07/12 06:44:12;;;;;;;16.35;12.90;;;18.60;94.90;;;;;;5015699;28;20259;-87
2023/07/12 06:46:37;;;;;;;14.52;12.70;;;18.60;94.90;;;;;;5014546;28;20180;-86
2023/07/12 06:49:03;;;;;;;13.93;12.52;;;18.60;94.80;;;;;;5014427;28;20219;-86
2023/07/12 06:51:28;;;;;;;12.77;11.60;;;18.50;94.70;;;;;;5014304;28;20715;-86
2023/07/12 06:53:53;;;;;;;12.27;11.07;;;18.50;94.40;;;;;;5015467;28;20205;-86
2023/07/12 06:56:19;;;;;;;12.32;11.00;;;18.60;94.50;;;;;;5014325;28;20173;-86
2023/07/12 06:58:44;;;;;;;10.88;9.85;;;18.50;94.30;;;;;;5014266;28;20649;-86
2023/07/12 07:01:10;;;;;;;10.45;9.30;;;18.30;93.40;;;;;;5014443;28;20224;-86
2023/07/12 07:03:36;;;;;;;13.80;7.90;;;18.40;93.20;;;;;;5015614;28;20189;-86
2023/07/12 07:06:03;;;;;;;14.20;8.15;;;18.40;92.80;;;;;;5015353;28;20224;-86
2023/07/12 07:08:29;;;;;;;14.23;11.27;;;18.50;92.30;;;;;;5014152;28;20250;-86
2023/07/12 07:10:56;;;;;;;11.82;8.50;;;18.50;92.00;;;;;;5013843;28;20684;-86
2023/07/12 07:13:22;;;;;;;9.32;8.38;;;18.50;92.00;;;;;;5013789;28;20194;-83
2023/07/12 07:15:48;;;;;;;9.60;8.60;;;18.50;91.10;;;;;;5015063;28;20173;-84
2023/07/12 07:18:14;;;;;;;10.55;8.18;;;18.50;91.40;;;;;;5013834;28;20177;-85
2023/07/12 07:20:41;;;;;;;11.02;8.40;;;18.50;91.70;;;;;;5013809;28;20177;-85
2023/07/12 07:23:07;;;;;;;9.82;8.63;;;18.50;91.40;;;;;;5014947;28;20208;-85
2023/07/12 07:25:33;;;;;;;10.00;8.95;;;18.50;91.50;;;;;;5013616;28;20178;-85
2023/07/12 07:27:58;;;;;;;12.18;9.30;;;18.40;91.20;;;;;;5013736;28;20200;-86
2023/07/12 07:30:24;;;;;;;10.80;8.68;;;18.40;90.70;;;;;;5014165;28;20201;-86
2023/07/12 07:32:50;;;;;;;11.23;8.88;;;18.50;90.60;;;;;;5013455;28;20184;-85
2023/07/12 07:35:16;;;;;;;12.50;8.90;;;18.50;90.80;;;;;;5014000;28;20223;-85
2023/07/12 07:37:42;;;;;;;10.27;8.25;;;18.60;90.90;;;;;;5013532;28;20264;-86
2023/07/12 07:40:08;;;;;;;12.05;8.68;;;18.80;90.80;;;;;;5013608;28;20192;-86
2023/07/12 07:42:34;;;;;;;11.95;8.75;;;18.80;90.20;;;;;;5014577;28;20174;-86
2023/07/12 07:44:59;;;;;;;14.88;8.73;;;18.80;89.80;;;;;;5014499;28;20239;-84
2023/07/12 07:47:25;;;;;;;13.07;9.07;;;19.00;89.70;;;;;;5013288;28;20697;-85
2023/07/12 07:49:50;;;;;;;13.18;9.15;;;19.00;89.20;;;;;;5014844;28;20181;-84
2023/07/12 07:52:16;;;;;;;10.43;9.32;;;19.00;89.40;;;;;;5014502;28;20177;-87
2023/07/12 07:54:41;;;;;;;12.43;8.52;;;19.00;89.00;;;;;;5013216;28;20220;-87
2023/07/12 07:57:07;;;;;;;9.85;8.43;;;19.20;89.60;;;;;;5014391;28;20177;-86
2023/07/12 07:59:33;;;;;;;11.35;8.15;;;19.20;89.30;;;;;;5014726;28;20645;-88
2023/07/12 08:01:58;;;;;;;15.10;8.30;;;19.40;89.40;;;;;;5013627;28;20544;-86
2023/07/12 08:04:24;;;;;;;15.70;14.13;;;19.30;89.30;;;;;;5014260;28;20251;-86
2023/07/12 08:06:50;;;;;;;18.48;13.02;;;19.30;87.70;;;;;;5013032;28;20224;-87
2023/07/12 08:09:16;;;;;;;17.42;14.23;;;19.40;87.90;;;;;;5014409;28;20542;-87
2023/07/12 08:11:42;;;;;;;12.20;10.68;;;19.50;88.30;;;;;;5012979;28;20215;-86
2023/07/12 08:14:07;;;;;;;16.15;13.73;;;19.50;88.30;;;;;;5014030;28;20193;-86
2023/07/12 08:16:35;;;;;;;16.55;14.90;;;19.40;87.30;;;;;;5012888;28;20581;-86
2023/07/12 08:19:02;;;;;;;14.80;13.30;;;19.40;87.20;;;;;;5012814;28;20177;-87
2023/07/12 08:21:28;;;;;;;17.13;14.70;;;19.50;87.10;;;;;;5012798;28;20185;-87
2023/07/12 08:23:54;;;;;;;14.95;13.75;;;19.50;87.40;;;;;;5012714;28;20239;-86
2023/07/12 08:26:19;;;;;;;17.40;15.85;;;19.50;87.40;;;;;;5013896;28;20189;-86
2023/07/12 08:28:46;;;;;;;17.95;14.95;;;19.40;86.70;;;;;;5013893;28;20174;-87
2023/07/12 08:31:11;;;;;;;11.68;8.55;;;19.50;86.90;;;;;;5012628;28;20275;-86
2023/07/12 08:33:37;;;;;;;9.68;7.68;;;19.50;87.40;;;;;;5012530;28;20225;-86
2023/07/12 08:36:03;;;;;;;13.55;9.93;;;19.90;87.20;;;;;;5014369;28;20565;-86
2023/07/12 08:38:31;;;;;;;15.65;9.20;;;19.90;85.60;;;;;;5012532;28;20185;-87
2023/07/12 08:40:58;;;;;;;12.63;8.18;;;20.00;86.40;;;;;;5013724;28;20165;-87
2023/07/12 08:43:32;;;;;;;9.80;8.80;;;19.90;86.90;;;;;;5012392;28;20201;-86
2023/07/12 08:46:13;;;;;;;9.15;8.25;;;19.80;86.70;;;;;;5012422;28;20180;-86
2023/07/12 08:48:39;;;;;;;9.80;8.68;;;19.80;85.70;;;;;;5012428;28;20165;-86
2023/07/12 08:51:39;;;;;;;11.23;7.97;;;19.70;85.70;;;;;;5013544;28;20299;-87
2023/07/12 08:54:05;;;;;;;13.25;9.00;;;20.00;86.00;;;;;;4997777;28;20764;-86
2023/07/12 08:56:31;;;;;;;10.65;9.18;;;20.20;84.80;;;;;;5012270;28;20216;-87
2023/07/12 08:58:56;;;;;;;13.85;9.80;;;20.20;84.00;;;;;;5012211;28;20173;-87
2023/07/12 09:01:43;;;;;;;13.27;9.55;;;20.30;83.90;;;;;;5013433;28;20204;-87
2023/07/12 09:04:18;;;;;;;14.65;10.35;;;20.50;82.50;;;;;;5012058;28;20227;-87
2023/07/12 09:06:43;;;;;;;10.07;8.57;;;20.80;83.10;;;;;;5013470;28;20169;-87
2023/07/12 09:09:10;;;;;;;13.43;9.05;;;21.00;83.20;;;;;;5013350;28;20189;-86
2023/07/12 09:11:35;;;;;;;14.18;9.80;;;20.90;81.10;;;;;;5013547;28;20247;-86
2023/07/12 09:14:01;;;;;;;12.32;9.98;;;20.80;79.70;;;;;;5012036;28;20189;-86
2023/07/12 09:16:31;;;;;;;10.38;9.38;;;20.80;81.40;;;;;;5012090;28;20177;-86
2023/07/12 09:19:00;;;;;;;11.27;10.25;;;20.80;80.70;;;;;;5013283;28;20200;-86
2023/07/12 09:21:31;;;;;;;10.77;9.63;;;20.60;80.00;;;;;;5012028;28;20189;-86
2023/07/12 09:24:03;;;;;;;9.55;8.50;;;20.60;80.80;;;;;;5011952;28;20620;-86
2023/07/12 09:26:31;;;;;;;11.95;9.55;;;20.80;82.60;;;;;;5012049;28;20546;-86
2023/07/12 09:29:08;;;;;;;11.25;10.18;;;20.70;80.80;;;;;;5013363;28;20212;-87
2023/07/12 09:31:35;;;;;;;10.25;8.77;;;20.40;80.80;;;;;;5011873;28;20193;-86
2023/07/12 09:34:05;;;;;;;10.60;9.38;;;20.70;81.60;;;;;;5012086;28;20198;-87
2023/07/12 09:36:35;;;;;;;14.90;10.13;;;21.00;80.20;;;;;;5011909;28;20201;-87
2023/07/12 09:39:04;;;;;;;11.13;10.13;;;21.00;79.80;;;;;;5012019;28;20200;-86
2023/07/12 09:41:30;;;;;;;14.13;10.77;;;20.70;78.90;;;;;;5012694;28;20245;-87
2023/07/12 09:43:58;;;;;;;12.43;9.85;;;20.50;79.40;;;;;;5011749;28;20294;-86
2023/07/12 09:46:35;;;;;;;17.52;11.07;;;20.50;80.90;;;;;;5011913;28;20188;-87
2023/07/12 09:49:11;;;;;;;16.05;11.65;;;20.70;80.70;;;;;;5013342;28;20200;-87
2023/07/12 09:52:14;;;;;;;14.55;13.02;;;20.70;78.00;;;;;;5012974;28;20193;-86
2023/07/12 09:54:47;;;;;;;13.20;10.20;;;20.80;78.20;;;;;;5011577;28;20276;-87
2023/07/12 09:57:25;;;;;;;17.02;11.57;;;21.00;78.70;;;;;;5011764;28;20162;-87
2023/07/12 10:00:01;;;;;;;15.55;11.40;;;21.00;78.40;;;;;;5013177;28;20648;-87
2023/07/12 10:03:02;;;;;;;15.25;11.60;;;21.20;78.30;;;;;;5011611;28;20216;-86
2023/07/12 10:05:28;;;;;;;14.85;12.30;;;21.60;77.10;;;;;;5012137;28;20224;-87
2023/07/12 10:08:05;;;;;;;16.05;13.20;;;21.50;75.50;;;;;;5015445;28;20264;-87
2023/07/12 10:10:46;;;;;;;16.63;10.63;;;21.60;76.10;;;;;;5015258;28;20248;-86
2023/07/12 10:13:40;;;;;;;13.77;11.68;;;21.80;77.10;;;;;;5015091;28;20204;-87
2023/07/12 10:16:13;;;;;;;16.02;12.15;;;21.80;73.80;;;;;;5015131;28;20195;-86
2023/07/12 10:18:39;;;;;;;15.13;12.70;;;21.50;74.60;;;;;;5015109;28;20258;-86
2023/07/12 10:21:06;;;;;;;18.60;14.48;;;21.50;73.90;;;;;;5016264;28;20623;-87
2023/07/12 10:23:42;;;;;;;15.20;13.68;;;21.50;72.80;;;;;;5016136;28;20208;-87
2023/07/12 10:26:11;;;;;;;14.07;12.88;;;21.60;73.40;;;;;;5014981;28;20165;-87
2023/07/12 10:29:03;;;;;;;18.90;13.10;;;21.80;74.00;;;;;;5014734;28;20177;-86
2023/07/12 10:31:51;;;;;;;15.65;14.20;;;22.00;74.80;;;;;;5004421;28;20213;-87
2023/07/12 10:34:29;;;;;;;15.75;14.15;;;21.90;73.70;;;;;;5014761;28;20200;-87
2023/07/12 10:36:56;;;;;;;19.38;13.82;;;22.00;74.20;;;;;;5014653;28;20185;-87
2023/07/12 10:39:25;;;;;;;21.73;13.98;;;21.90;73.50;;;;;;5014708;28;20173;-87
2023/07/12 10:42:25;;;;;;;16.70;13.45;;;22.20;74.30;;;;;;5014581;28;20564;-87
2023/07/12 10:44:54;;;;;;;18.05;13.35;;;22.70;74.50;;;;;;5014402;28;20216;-86
2023/07/12 10:47:23;;;;;;;16.50;14.65;;;22.80;71.80;;;;;;5014419;28;20184;-87
2023/07/12 10:49:59;;;;;;;15.25;13.88;;;22.60;71.60;;;;;;5015295;28;20177;-87
2023/07/12 10:52:28;;;;;;;15.35;13.13;;;22.20;71.50;;;;;;5014561;28;20695;-87
2023/07/12 10:55:03;;;;;;;15.57;13.93;;;22.70;72.20;;;;;;5014204;28;20247;-87
2023/07/12 10:57:38;;;;;;;14.45;12.95;;;22.60;69.40;;;;;;5014301;28;20210;-87
2023/07/12 11:00:24;;;;;;;16.10;13.27;;;22.20;70.40;;;;;;5014384;28;20633;-87
2023/07/12 11:03:08;;;;;;;14.20;12.63;;;22.30;71.90;;;;;;5014132;28;20173;-87
2023/07/12 11:05:56;;;;;;;14.63;13.07;;;22.40;69.70;;;;;;5015385;28;20173;-87
2023/07/12 11:08:31;;;;;;;17.08;12.52;;;21.90;69.80;;;;;;5015447;28;20158;-87
2023/07/12 11:11:08;;;;;;;15.23;13.85;;;21.90;70.40;;;;;;5015310;28;20255;-86
2023/07/12 11:13:41;;;;;;;13.65;12.35;;;21.80;70.40;;;;;;5014020;28;20743;-87
2023/07/12 11:16:18;;;;;;;14.57;12.52;;;21.70;71.50;;;;;;5014810;28;20204;-87
2023/07/12 11:18:54;;;;;;;16.35;13.90;;;22.10;70.60;;;;;;5015313;28;20165;-87
2023/07/12 11:21:45;;;;;;;14.80;13.10;;;21.40;71.30;;;;;;5014056;28;20166;-87
2023/07/12 11:24:25;;;;;;;19.52;12.40;;;21.40;72.20;;;;;;5013807;28;20201;-87
2023/07/12 11:26:57;;;;;;;13.02;11.27;;;21.20;71.80;;;;;;5014682;28;20213;-87
2023/07/12 11:29:28;;;;;;;15.27;11.57;;;21.20;73.80;;;;;;5015073;28;20240;-87
2023/07/12 11:32:32;;;;;;;18.02;11.35;;;21.00;73.20;;;;;;5013603;28;20193;-87
2023/07/12 11:35:03;;;;;;;11.70;10.50;;;20.90;74.50;;;;;;5012123;28;20201;-87
2023/07/12 11:37:40;;;;;;;13.27;9.57;;;21.00;75.40;;;;;;5014850;28;20157;-87
2023/07/12 11:40:24;;;;;;;16.35;10.90;;;21.80;76.50;;;;;;5014142;28;20189;-87
2023/07/12 11:42:50;;;;;;;13.52;12.25;;;22.30;72.40;;;;;;5013377;28;20180;-87
2023/07/12 11:45:20;;;;;;;13.23;11.90;;;22.40;70.40;;;;;;5013505;28;20533;-87
2023/07/12 11:47:51;;;;;;;14.63;11.95;;;21.90;70.90;;;;;;5013366;28;20220;-87
2023/07/12 11:50:22;;;;;;;12.10;10.90;;;21.80;72.10;;;;;;5014829;28;20256;-87
2023/07/12 11:52:49;;;;;;;13.52;11.82;;;22.20;72.20;;;;;;5014565;28;20181;-87
2023/07/12 11:55:18;;;;;;;14.65;13.13;;;22.50;70.80;;;;;;5014488;28;20193;-88
2023/07/12 11:57:45;;;;;;;12.85;11.57;;;23.00;68.20;;;;;;5013234;28;20173;-87
2023/07/12 12:00:26;;;;;;;13.20;11.90;;;22.70;69.00;;;;;;5013234;28;20550;-87
2023/07/12 12:02:57;;;;;;;11.65;10.75;;;21.60;72.20;;;;;;5013385;28;20177;-85
2023/07/12 12:05:30;;;;;;;11.75;10.85;;;20.90;72.20;;;;;;5013094;28;20177;-86
2023/07/12 12:07:57;;;;;;;13.88;10.25;;;19.90;74.30;;;;;;5014736;28;20181;-86
2023/07/12 12:10:29;;;;;;;10.40;9.40;;;19.60;76.10;;;;;;5012947;28;20297;-86
2023/07/12 12:12:55;;;;;;;10.90;9.82;;;20.10;76.60;;;;;;5013134;28;20181;-86
2023/07/12 12:15:27;;;;;;;9.95;8.98;;;20.40;76.40;;;;;;5012942;28;20174;-85
2023/07/12 12:17:54;;;;;;;9.38;8.48;;;20.30;75.70;;;;;;5012959;28;20170;-86
2023/07/12 12:20:25;;;;;;;8.45;7.75;;;19.60;77.70;;;;;;5012891;28;20208;-86
2023/07/12 12:23:14;;;;;;;9.13;8.27;;;19.50;79.10;;;;;;5012698;28;20649;-85
2023/07/12 12:25:49;;;;;;;8.50;7.75;;;19.60;77.40;;;;;;5012536;28;20274;-85
2023/07/12 12:28:27;;;;;;;9.82;8.68;;;19.30;77.40;;;;;;5012057;28;20635;-86
2023/07/12 12:31:00;;;;;;;9.23;8.40;;;19.20;79.00;;;;;;5012540;28;20197;-86
2023/07/12 12:33:28;;;;;;;9.18;8.27;;;19.50;78.70;;;;;;5013790;28;20200;-86
2023/07/12 12:36:00;;;;;;;8.70;7.90;;;19.70;78.50;;;;;;5014024;28;20642;-87
2023/07/12 12:38:29;;;;;;;9.38;8.45;;;19.80;77.70;;;;;;5012866;28;20196;-86
2023/07/12 12:41:01;;;;;;;9.93;8.88;;;19.60;77.00;;;;;;5012408;28;20181;-85
2023/07/12 12:43:26;;;;;;;11.50;9.57;;;19.70;77.90;;;;;;5013027;28;20344;-85